AirNav  
 
 1226 users online  

1TE6 Memorial Hermann Pearland Hospital Heliport
Pearland, Texas, USA

GOING TO PEARLAND?


FAA INFORMATION EFFECTIVE 25 MARCH 2021

Location

FAA Identifier: 1TE6
Lat/Long: 29-33-52.7500N 095-23-16.9200W
29-33.879167N 095-23.282000W
29.5646528,-95.3880333
(estimated)
Elevation: 58 ft. / 18 m (estimated)
From city: 6 miles W of PEARLAND, TX
Time zone: UTC -5 (UTC -6 during Standard Time)
Zip code: 77047

Heliport Operations

Heliport use: Private use. Permission required prior to landing
Activation date: 02/2015
Control tower: no
ARTCC: HOUSTON CENTER
FSS: MONTGOMERY COUNTY FLIGHT SERVICE STATION
Attendance: CONTINUOUS
Wind indicator: yes
Segmented circle: no

Heliport Communications

WX AWOS-3 at AXH (6 nm SW): 123.625 (281-431-6572)
WX ASOS at HOU (7 nm NE): PHONE 713-847-1462
WX ASOS at LVJ (8 nm E): 118.525 (281-992-1853)
WX AWOS-3 at EFD (12 nm E): 135.575 (713-847-4430)
WX ASOS at SGR (14 nm W): 118.125 (281-242-7605)
WX AWOS-3PT at T41 (18 nm E): 120.275 (281-471-2206)

Nearby radio navigation aids

VOR radial/distance  VOR name  Freq  Var
IAHr180/23.6HUMBLE VORTAC116.6005E
VUHr297/32.5SCHOLES VOR/DME113.0006E
MHFr265/33.4TRINITY VOR/DME113.6007E

Heliport Services

Runway Information

Helipad H1

Dimensions: 30 x 30 ft. / 9 x 9 m
Surface: concrete
Runway edge lights: PERI
Traffic pattern: leftleft

Heliport Ownership and Management from official FAA records

Ownership: Privately-owned
Owner: MEMORIAL HERMANN HEALTH SYSTEM
929 GESSNER RD
HOUSTON, TX 77024
Phone 713-242-2737
Manager: DELBERT REED - MHSE FACILITIES MGR
Phone 281-929-4181

Additional Remarks

PWR LINE 70 FT TO EAST, MKD.
LIT PRKG LOT POLES IN APCH AND DEP PATHS.
FOR CD CTC HOUSTON ARTCC AT 281-230-5622.

Instrument Procedures

There are no published instrument procedures at 1TE6.

Some nearby airports with instrument procedures:

KAXH - Houston Southwest Airport (6 nm SW)
KHOU - William P Hobby Airport (7 nm NE)
KLVJ - Pearland Regional Airport (8 nm E)
KEFD - Ellington Airport (12 nm E)
KSGR - Sugar Land Regional Airport (14 nm W)
T41 - La Porte Municipal Airport (18 nm E)
 
Loc | Ops | Rwys | IFR | FBO | Links
Com | Nav | Svcs | Stats | Notes
Aerial photo
No photo
 
Airport distance calculator
Flying to Memorial Hermann Pearland Hospital Heliport? Find the distance to fly.

From to 1TE6

Sunrise and sunset
Times for 12-Apr-2021
 Local
(UTC-5)
 Zulu
(UTC)
Morning civil twilight06:3511:35
Sunrise06:5911:59
Sunset19:4500:45
Evening civil twilight20:1001:10

Current date and time
Zulu (UTC)  12-Apr-2021 23:06:04
Local (UTC-5)  12-Apr-2021 18:06:04
 
METAR
KAXH 
6nm SW 
122255Z AUTO 13007KT 10SM OVC030 25/20 A2981 RMK AO2 T02530199
KHOU 
7nm NE 
122253Z 09012KT 10SM SCT025 SCT250 27/19 A2980 RMK AO2 SLP097 T02670189
KLVJ 
8nm E 
122253Z AUTO 12011KT 9SM BKN032 26/19 A2982 RMK AO2 SLP097 T02610189
KEFD 
12nm E 
122250Z 10012KT 10SM FEW030 25/19 A2981
KSGR 
14nm W 
122253Z 15011KT 10SM OVC033 27/19 A2979 RMK AO2 SLP089 T02720194
KT41 
18nm E 
122255Z AUTO 12014KT 10SM CLR 25/19 A2982 RMK AO2 T02460192
TAF
KHOU 
7nm NE 
122049Z 1221/1318 15012KT P6SM BKN035 FM130000 13013KT P6SM BKN025 BKN250 FM130500 10007KT P6SM BKN015 FM131200 08005KT 6SM BR VCSH BKN009 OVC015 FM131700 04006KT P6SM VCSH SCT009 BKN015
KEFD 
12nm E 
122000Z 1220/1402 13012G18KT 9999 BKN030 QNH2980INS BECMG 1302/1303 12012KT 9999 OVC012 QNH2985INS BECMG 1308/1309 12015G25KT 4800 -SHRA OVC008 QNH2985INS BECMG 1320/1321 14012G18KT 9999 NSW BKN025 QNH2987INS BECMG 1323/1324 15012KT 9999 OVC015 QNH2988INS TX27/1320Z TN21/1306Z
KSGR 
14nm W 
122113Z 1221/1318 14012KT P6SM BKN035 FM122300 15010KT P6SM BKN025 FM130300 11009KT P6SM BKN015 FM131000 09008KT 6SM BR VCSH BKN009 OVC015 FM131700 04006KT P6SM VCSH SCT009 BKN015
NOTAMs
Click for the latest NOTAMs
NOTAMs are issued by the DoD/FAA and will open in a separate window not controlled by AirNav.

 

 
 

Would you like to see your business listed on this page?

 If your business provides an interesting product or service to pilots, flight crews, aircraft, or users of the Memorial Hermann Pearland Hospital Heliport, you should consider listing it here.  To start the listing process, click on the button below
 
Add a business
 

Other Pages about Memorial Hermann Pearland Hospital Heliport

Update a link
 
Copyright © AirNav, LLC. All rights reserved. Privacy Policy  Contact